createdAt,value
2019-01-29T00:01:32.504Z,41.30
2019-01-29T00:04:01.699Z,40.87
2019-01-29T00:06:30.879Z,34.10
2019-01-29T00:09:00.563Z,36.97
2019-01-29T00:11:29.749Z,38.73
2019-01-29T00:13:58.978Z,32.23
2019-01-29T00:16:28.142Z,34.43
2019-01-29T00:18:57.285Z,32.43
2019-01-29T00:21:27.272Z,31.37
2019-01-29T00:23:56.443Z,33.13
2019-01-29T00:26:26.236Z,33.83
2019-01-29T00:28:55.370Z,34.63
2019-01-29T00:31:24.541Z,35.03
2019-01-29T00:33:53.700Z,34.53
2019-01-29T00:36:22.884Z,38.87
2019-01-29T00:38:52.068Z,40.93
2019-01-29T00:41:21.277Z,40.07
2019-01-29T00:43:50.454Z,36.30
2019-01-29T00:46:19.647Z,37.23
2019-01-29T00:48:48.878Z,35.40
2019-01-29T00:51:18.069Z,34.93
2019-01-29T00:53:47.156Z,31.07
2019-01-29T00:56:16.335Z,29.13
2019-01-29T00:58:45.455Z,33.30
2019-01-29T01:01:15.076Z,34.23
2019-01-29T01:03:44.239Z,31.93
2019-01-29T01:06:13.418Z,33.97
2019-01-29T01:08:42.824Z,40.40
2019-01-29T01:11:11.972Z,41.23
2019-01-29T01:13:41.183Z,38.03
2019-01-29T01:16:10.344Z,38.37
2019-01-29T01:18:39.510Z,38.97
2019-01-29T01:21:08.681Z,36.93
2019-01-29T01:23:37.889Z,32.90
2019-01-29T01:26:07.034Z,38.10
2019-01-29T01:28:36.145Z,34.43
2019-01-29T01:31:05.320Z,36.77
2019-01-29T01:33:34.417Z,46.80
2019-01-29T01:36:03.593Z,58.37
2019-01-29T01:38:32.792Z,35.23
2019-01-29T01:41:01.960Z,33.47
2019-01-29T01:43:31.126Z,39.27
2019-01-29T01:46:00.295Z,36.13
2019-01-29T01:48:29.477Z,37.33
2019-01-29T01:50:58.666Z,40.40
2019-01-29T01:53:27.822Z,44.33
2019-01-29T01:55:57.017Z,38.90
2019-01-29T01:58:26.191Z,39.97
2019-01-29T02:00:55.358Z,45.07
2019-01-29T02:03:24.511Z,42.50
2019-01-29T02:05:53.715Z,37.07
2019-01-29T02:08:22.801Z,36.53
2019-01-29T02:10:51.994Z,34.00
2019-01-29T02:13:21.664Z,36.33
2019-01-29T02:15:50.818Z,38.40
2019-01-29T02:18:19.985Z,35.57
2019-01-29T02:20:49.190Z,38.43
2019-01-29T02:23:18.369Z,35.23
2019-01-29T02:25:47.445Z,34.13
2019-01-29T02:28:16.634Z,36.53
2019-01-29T02:30:45.787Z,36.77
2019-01-29T02:33:14.926Z,33.23
2019-01-29T02:35:44.511Z,35.97
2019-01-29T02:38:13.726Z,34.20
2019-01-29T02:40:42.915Z,32.93
2019-01-29T02:43:12.126Z,35.27
2019-01-29T02:45:41.307Z,35.07
2019-01-29T02:48:11.145Z,31.23
2019-01-29T02:50:40.240Z,36.43
2019-01-29T02:53:18.048Z,41.33
2019-01-29T02:55:40.259Z,47.90
2019-01-29T02:58:09.434Z,43.23
2019-01-29T03:00:38.878Z,36.27
2019-01-29T03:03:08.049Z,36.30
2019-01-29T03:05:37.199Z,36.63
2019-01-29T03:08:06.363Z,36.47
2019-01-29T03:10:35.542Z,30.67
2019-01-29T03:13:04.641Z,35.83
2019-01-29T03:15:33.801Z,35.80
2019-01-29T03:18:02.968Z,37.87
2019-01-29T03:20:32.135Z,39.00
2019-01-29T03:23:01.239Z,37.07
2019-01-29T03:25:30.395Z,38.17
2019-01-29T03:27:59.538Z,35.87
2019-01-29T03:30:28.637Z,34.10
2019-01-29T03:32:57.822Z,35.70
2019-01-29T03:35:26.907Z,37.87
2019-01-29T03:37:56.106Z,30.60
2019-01-29T03:40:26.705Z,36.07
2019-01-29T03:42:55.786Z,49.23
2019-01-29T03:45:24.961Z,49.80
2019-01-29T03:47:55.066Z,40.43
2019-01-29T03:50:24.533Z,41.00
2019-01-29T03:52:53.716Z,42.00
2019-01-29T03:55:22.870Z,38.87
2019-01-29T03:57:52.634Z,40.17
2019-01-29T04:00:23.973Z,39.63
2019-01-29T04:02:53.140Z,36.63
2019-01-29T04:05:22.421Z,37.90
2019-01-29T04:07:51.598Z,32.67
2019-01-29T04:10:20.804Z,36.33
2019-01-29T04:12:50.060Z,30.03
2019-01-29T04:15:19.946Z,31.30
2019-01-29T04:17:49.122Z,34.17
2019-01-29T04:20:20.187Z,33.63
2019-01-29T04:22:49.425Z,36.50
2019-01-29T04:25:18.646Z,33.47
2019-01-29T04:27:47.841Z,32.53
2019-01-29T04:30:18.698Z,36.27
2019-01-29T04:32:47.901Z,38.77
2019-01-29T04:35:17.079Z,50.90
2019-01-29T04:37:46.229Z,39.00
2019-01-29T04:40:17.104Z,38.07
2019-01-29T04:42:46.294Z,36.20
2019-01-29T04:45:15.920Z,34.47
2019-01-29T04:47:45.091Z,38.03
2019-01-29T04:50:16.529Z,35.23
2019-01-29T04:52:45.682Z,35.30
2019-01-29T04:55:15.055Z,36.77
2019-01-29T04:57:44.243Z,34.47
2019-01-29T05:00:16.177Z,35.53
2019-01-29T05:02:45.357Z,35.53
2019-01-29T05:05:14.532Z,37.83
2019-01-29T05:07:43.978Z,39.90
2019-01-29T05:10:13.248Z,35.77
2019-01-29T05:12:42.437Z,49.57
2019-01-29T05:15:13.085Z,47.77
2019-01-29T05:17:42.307Z,37.63
2019-01-29T05:20:13.716Z,35.20
2019-01-29T05:22:42.895Z,50.60
2019-01-29T05:25:12.093Z,38.27
2019-01-29T05:27:41.248Z,37.93
2019-01-29T05:30:15.973Z,38.70
2019-01-29T05:32:45.119Z,39.77
2019-01-29T05:35:14.220Z,42.50
2019-01-29T05:37:43.914Z,38.37
2019-01-29T05:40:14.950Z,41.10
2019-01-29T05:42:44.112Z,35.27
2019-01-29T05:45:14.825Z,33.20
2019-01-29T05:47:43.984Z,42.07
2019-01-29T05:50:13.327Z,39.87
2019-01-29T05:52:42.553Z,40.10
2019-01-29T05:55:11.802Z,39.80
2019-01-29T05:57:41.665Z,38.20
2019-01-29T06:00:23.672Z,36.63
2019-01-29T06:02:52.858Z,31.80
2019-01-29T06:05:22.314Z,45.47
2019-01-29T06:07:51.523Z,44.67
2019-01-29T06:10:20.703Z,47.13
2019-01-29T06:12:49.885Z,54.17
2019-01-29T06:15:19.629Z,131.20
2019-01-29T06:17:48.790Z,75.30
2019-01-29T06:20:20.016Z,137.60
2019-01-29T06:22:49.178Z,222.00
2019-01-29T06:25:18.425Z,247.87
2019-01-29T06:27:47.643Z,42.50
2019-01-29T06:30:17.903Z,45.63
2019-01-29T06:32:47.499Z,151.80
2019-01-29T06:35:17.452Z,110.90
2019-01-29T06:37:46.601Z,50.57
2019-01-29T06:40:18.313Z,41.50
2019-01-29T06:42:47.485Z,42.83
2019-01-29T06:45:17.081Z,44.47
2019-01-29T06:47:46.330Z,70.93
2019-01-29T06:50:20.563Z,56.77
2019-01-29T06:52:49.771Z,71.70
2019-01-29T06:55:20.201Z,58.70
2019-01-29T06:57:55.018Z,71.07
2019-01-29T07:00:26.233Z,47.87
2019-01-29T07:02:55.435Z,69.33
2019-01-29T07:05:24.655Z,85.80
2019-01-29T07:07:53.819Z,73.27
2019-01-29T07:10:23.099Z,73.23
2019-01-29T07:12:52.306Z,41.20
2019-01-29T07:15:40.399Z,31.50
2019-01-29T07:18:33.658Z,31.50
2019-01-29T07:21:05.183Z,34.03
2019-01-29T07:23:34.354Z,41.73
2019-01-29T07:26:03.554Z,68.33
2019-01-29T07:28:32.775Z,75.23
2019-01-29T07:31:01.948Z,48.30
2019-01-29T07:33:31.124Z,49.77
2019-01-29T07:36:00.295Z,77.43
2019-01-29T07:38:29.499Z,76.10
2019-01-29T07:40:58.669Z,65.57
2019-01-29T07:43:27.848Z,51.50
2019-01-29T07:45:57.080Z,43.40
2019-01-29T07:48:26.285Z,45.53
2019-01-29T07:50:55.484Z,40.97
2019-01-29T07:53:24.813Z,36.60
2019-01-29T07:55:53.999Z,42.23
2019-01-29T07:58:23.189Z,42.37
2019-01-29T08:00:52.277Z,54.33
2019-01-29T08:03:21.457Z,34.60
2019-01-29T08:05:50.731Z,28.77
2019-01-29T08:08:19.942Z,38.07
2019-01-29T08:10:51.621Z,22.27
2019-01-29T08:13:21.052Z,43.53
2019-01-29T08:15:50.217Z,23.83
2019-01-29T08:18:20.606Z,23.10
2019-01-29T08:20:50.002Z,48.80
2019-01-29T08:23:19.200Z,31.33
2019-01-29T08:25:48.459Z,20.90
2019-01-29T08:28:17.872Z,23.37
2019-01-29T08:30:47.816Z,23.00
2019-01-29T08:33:17.025Z,17.60
2019-01-29T08:35:46.242Z,22.13
2019-01-29T08:38:15.748Z,23.37
2019-01-29T08:40:44.939Z,12.40
2019-01-29T08:43:14.103Z,24.57
2019-01-29T08:45:43.319Z,30.40
2019-01-29T08:48:12.549Z,30.30
2019-01-29T08:50:42.171Z,30.47
2019-01-29T08:53:11.396Z,32.03
2019-01-29T08:55:40.798Z,35.73
2019-01-29T08:58:11.509Z,39.30
2019-01-29T09:00:40.754Z,23.40
2019-01-29T09:03:10.043Z,25.57
2019-01-29T09:05:39.273Z,28.67
2019-01-29T09:08:08.477Z,33.40
2019-01-29T09:10:37.677Z,30.70
2019-01-29T09:13:06.862Z,25.07
2019-01-29T09:15:36.108Z,33.67
2019-01-29T09:18:05.320Z,21.20
2019-01-29T09:20:34.539Z,22.50
2019-01-29T09:23:03.833Z,24.93
2019-01-29T09:25:33.040Z,25.10
2019-01-29T09:28:04.420Z,23.10
2019-01-29T09:30:33.674Z,28.70
2019-01-29T09:33:02.930Z,22.23
2019-01-29T09:35:32.189Z,25.23
2019-01-29T09:38:01.443Z,25.77
2019-01-29T09:40:32.242Z,23.40
2019-01-29T09:43:01.524Z,21.37
2019-01-29T09:45:30.799Z,22.30
2019-01-29T09:48:00.010Z,17.33
2019-01-29T09:50:31.257Z,19.90
2019-01-29T09:53:00.507Z,17.90
2019-01-29T09:55:30.100Z,17.53
2019-01-29T09:58:01.975Z,17.43
2019-01-29T10:00:33.431Z,15.60
2019-01-29T10:03:02.642Z,17.00
2019-01-29T10:05:31.841Z,18.00
2019-01-29T10:08:04.070Z,23.37
2019-01-29T10:10:33.232Z,15.83
2019-01-29T10:13:02.433Z,22.83
2019-01-29T10:15:35.575Z,17.73
2019-01-29T10:18:04.800Z,19.47
2019-01-29T10:20:34.084Z,24.43
2019-01-29T10:23:03.861Z,23.70
2019-01-29T10:25:37.980Z,17.57
2019-01-29T10:28:04.269Z,16.67
2019-01-29T10:30:33.480Z,17.13
2019-01-29T10:33:02.708Z,21.40
2019-01-29T10:35:32.560Z,22.90
2019-01-29T10:38:02.866Z,17.00
2019-01-29T10:40:32.117Z,19.70
2019-01-29T10:43:02.508Z,21.30
2019-01-29T10:45:31.773Z,17.17
2019-01-29T10:48:01.102Z,16.90
2019-01-29T10:50:30.608Z,12.87
2019-01-29T10:52:59.864Z,18.40
2019-01-29T10:55:29.076Z,13.43
2019-01-29T10:57:58.429Z,15.67
2019-01-29T11:00:31.071Z,15.87
2019-01-29T11:03:00.244Z,37.50
2019-01-29T11:05:29.483Z,18.80
2019-01-29T11:07:59.438Z,15.53
2019-01-29T11:10:28.749Z,32.70
2019-01-29T11:12:59.527Z,23.90
2019-01-29T11:15:32.109Z,68.47
2019-01-29T11:18:03.036Z,62.40
2019-01-29T11:20:32.480Z,19.87
2019-01-29T11:23:01.694Z,64.23
2019-01-29T11:25:30.876Z,40.60
2019-01-29T11:28:01.835Z,20.17
2019-01-29T11:30:31.212Z,18.23
2019-01-29T11:33:01.542Z,20.40
2019-01-29T11:35:31.061Z,50.60
2019-01-29T11:38:00.489Z,10.07
2019-01-29T11:40:31.802Z,29.80
2019-01-29T11:43:01.011Z,28.50
2019-01-29T11:45:32.683Z,13.70
2019-01-29T11:48:02.194Z,10.10
2019-01-29T11:50:31.407Z,20.60
2019-01-29T11:53:00.774Z,20.13
2019-01-29T11:55:30.083Z,20.07
2019-01-29T11:57:59.987Z,17.97
2019-01-29T12:00:35.639Z,17.77
2019-01-29T12:03:04.927Z,20.67
2019-01-29T12:05:34.187Z,18.23
2019-01-29T12:08:03.533Z,20.67
2019-01-29T12:10:32.882Z,24.23
2019-01-29T12:13:02.570Z,20.20
2019-01-29T12:15:32.049Z,23.93
2019-01-29T12:18:01.264Z,40.73
2019-01-29T12:20:30.533Z,43.83
2019-01-29T12:23:00.967Z,56.33
2019-01-29T12:25:30.724Z,24.00
2019-01-29T12:28:00.691Z,34.53
2019-01-29T12:30:29.997Z,43.27
2019-01-29T12:32:59.303Z,37.10
2019-01-29T12:35:28.880Z,30.77
2019-01-29T12:37:59.317Z,41.53
2019-01-29T12:40:28.509Z,54.10
2019-01-29T12:42:57.988Z,49.17
2019-01-29T12:45:27.236Z,53.20
2019-01-29T12:47:56.525Z,53.97
2019-01-29T12:50:25.957Z,25.17
2019-01-29T12:53:23.430Z,31.10
2019-01-29T12:55:55.002Z,45.73
2019-01-29T12:58:24.223Z,41.87
2019-01-29T13:00:56.075Z,34.17
2019-01-29T13:03:25.279Z,42.50
2019-01-29T13:05:54.523Z,33.33
2019-01-29T13:08:26.140Z,32.60
2019-01-29T13:10:56.928Z,40.63
2019-01-29T13:13:26.132Z,43.23
2019-01-29T13:15:55.353Z,54.37
2019-01-29T13:18:24.611Z,50.27
2019-01-29T13:20:57.030Z,58.93
2019-01-29T13:23:26.251Z,33.50
2019-01-29T13:25:56.172Z,29.60
2019-01-29T13:28:25.429Z,48.37
2019-01-29T13:30:54.669Z,105.13
2019-01-29T13:33:24.332Z,55.10
2019-01-29T13:35:53.532Z,33.73
2019-01-29T13:38:23.193Z,43.63
2019-01-29T13:40:52.453Z,47.10
2019-01-29T13:43:21.669Z,54.87
2019-01-29T13:45:50.934Z,55.03
2019-01-29T13:48:20.508Z,33.47
2019-01-29T13:50:52.888Z,37.57
2019-01-29T13:53:23.151Z,50.00
2019-01-29T13:55:53.462Z,61.77
2019-01-29T13:58:22.732Z,24.93
2019-01-29T14:00:52.057Z,32.33
2019-01-29T14:03:21.271Z,46.50
2019-01-29T14:05:50.950Z,29.77
2019-01-29T14:08:20.228Z,30.73
2019-01-29T14:10:49.461Z,33.60
2019-01-29T14:13:18.992Z,25.90
2019-01-29T14:15:53.595Z,28.90
2019-01-29T14:18:24.982Z,55.17
2019-01-29T14:20:54.331Z,24.67
2019-01-29T14:23:31.401Z,47.13
2019-01-29T14:26:00.649Z,48.57
2019-01-29T14:28:30.852Z,37.57
2019-01-29T14:31:00.081Z,30.77
2019-01-29T14:33:29.904Z,37.33
2019-01-29T14:36:00.999Z,51.93
2019-01-29T14:39:17.068Z,52.80
2019-01-29T14:41:46.305Z,43.53
2019-01-29T14:44:21.348Z,31.03
2019-01-29T14:46:51.250Z,57.23
2019-01-29T14:49:20.461Z,56.23
2019-01-29T14:51:50.089Z,123.30
2019-01-29T14:54:19.331Z,51.77
2019-01-29T14:56:56.377Z,66.37
2019-01-29T14:59:19.406Z,103.80
2019-01-29T15:01:48.901Z,115.47
2019-01-29T15:04:18.138Z,38.07
2019-01-29T15:06:47.880Z,74.57
2019-01-29T15:09:17.653Z,24.33
2019-01-29T15:11:46.954Z,52.87
2019-01-29T15:14:16.216Z,30.90
2019-01-29T15:17:13.509Z,44.30
2019-01-29T15:19:43.436Z,92.63
2019-01-29T15:22:12.619Z,31.80
2019-01-29T15:24:41.971Z,47.53
2019-01-29T15:27:11.762Z,69.63
2019-01-29T15:29:41.029Z,102.70
2019-01-29T15:32:10.284Z,32.83
2019-01-29T15:34:39.606Z,52.63
2019-01-29T15:37:08.861Z,35.30
2019-01-29T15:39:38.189Z,62.47
2019-01-29T15:42:07.570Z,30.27
2019-01-29T15:44:36.853Z,44.23
2019-01-29T15:47:06.157Z,34.03
2019-01-29T15:49:35.495Z,45.73
2019-01-29T15:52:06.040Z,47.30
2019-01-29T15:54:35.914Z,30.63
2019-01-29T15:57:13.815Z,23.87
2019-01-29T15:59:42.812Z,25.20
2019-01-29T16:02:07.624Z,58.90
2019-01-29T16:04:36.971Z,24.07
2019-01-29T16:07:06.293Z,42.73
2019-01-29T16:09:35.676Z,37.73
2019-01-29T16:12:04.967Z,35.70
2019-01-29T16:14:34.673Z,41.63
2019-01-29T16:17:04.208Z,46.03
2019-01-29T16:19:34.295Z,33.47
2019-01-29T16:22:03.543Z,37.20
2019-01-29T16:24:33.010Z,63.90
2019-01-29T16:27:06.956Z,45.37
2019-01-29T16:29:33.354Z,37.17
2019-01-29T16:32:03.082Z,28.23
2019-01-29T16:34:32.544Z,40.30
2019-01-29T16:37:08.683Z,33.53
2019-01-29T16:39:38.095Z,54.73
2019-01-29T16:42:08.336Z,34.07
2019-01-29T16:44:37.707Z,38.80
2019-01-29T16:47:07.496Z,62.77
2019-01-29T16:49:36.801Z,47.67
2019-01-29T16:52:07.173Z,49.13
2019-01-29T16:54:38.360Z,44.63
2019-01-29T16:57:08.107Z,45.20
2019-01-29T16:59:37.415Z,32.93
2019-01-29T17:02:07.049Z,23.00
2019-01-29T17:04:36.316Z,18.20
2019-01-29T17:07:06.004Z,17.87
2019-01-29T17:09:35.349Z,30.23
2019-01-29T17:12:05.015Z,42.30
2019-01-29T17:14:34.365Z,75.77
2019-01-29T17:17:03.601Z,57.43
2019-01-29T17:19:32.889Z,65.20
2019-01-29T17:22:02.114Z,42.73
2019-01-29T17:24:31.391Z,50.00
2019-01-29T17:27:00.710Z,50.73
2019-01-29T17:29:30.047Z,109.07
2019-01-29T17:31:59.298Z,81.70
2019-01-29T17:34:29.398Z,61.70
2019-01-29T17:36:58.690Z,42.87
2019-01-29T17:39:27.964Z,48.23
2019-01-29T17:41:59.085Z,38.77
2019-01-29T17:44:28.261Z,45.87
2019-01-29T17:46:57.557Z,50.07
2019-01-29T17:49:26.861Z,71.33
2019-01-29T17:51:56.507Z,38.93
2019-01-29T17:54:25.745Z,51.03
2019-01-29T17:56:54.934Z,58.20
2019-01-29T17:59:24.548Z,73.43
2019-01-29T18:01:53.782Z,78.17
2019-01-29T18:04:23.027Z,122.33
2019-01-29T18:06:52.535Z,109.93
2019-01-29T18:09:22.045Z,91.13
2019-01-29T18:11:51.406Z,102.83
2019-01-29T18:14:21.079Z,84.10
2019-01-29T18:16:50.451Z,61.87
2019-01-29T18:19:20.342Z,53.83
2019-01-29T18:21:56.492Z,52.23
2019-01-29T18:24:20.581Z,49.10
2019-01-29T18:26:49.939Z,39.67
2019-01-29T18:29:20.540Z,30.20
2019-01-29T18:31:49.878Z,24.27
2019-01-29T18:34:19.683Z,26.10
2019-01-29T18:36:49.306Z,25.30
2019-01-29T18:39:19.892Z,28.30
2019-01-29T18:41:49.259Z,26.97
2019-01-29T18:44:18.627Z,32.97
2019-01-29T18:46:48.959Z,33.70
2019-01-29T18:49:18.175Z,36.37
2019-01-29T18:51:47.622Z,29.93
2019-01-29T18:54:17.088Z,24.63
2019-01-29T18:56:46.935Z,25.67
2019-01-29T18:59:16.556Z,29.07
2019-01-29T19:01:45.903Z,41.07
2019-01-29T19:04:18.701Z,28.53
2019-01-29T19:06:48.100Z,66.70
2019-01-29T19:09:17.616Z,40.97
2019-01-29T19:11:47.550Z,75.83
2019-01-29T19:14:17.027Z,70.43
2019-01-29T19:16:48.771Z,25.33
2019-01-29T19:19:18.281Z,107.50
2019-01-29T19:21:48.497Z,148.13
2019-01-29T19:24:17.969Z,122.60
2019-01-29T19:26:49.901Z,75.47
2019-01-29T19:29:19.280Z,103.10
2019-01-29T19:31:49.863Z,99.87
2019-01-29T19:34:19.496Z,80.57
2019-01-29T19:36:48.844Z,334.60
2019-01-29T19:39:18.361Z,315.77
2019-01-29T19:41:47.855Z,71.90
2019-01-29T19:44:17.410Z,39.93
2019-01-29T19:46:46.996Z,59.27
2019-01-29T19:49:16.595Z,47.10
2019-01-29T19:51:48.988Z,40.47
2019-01-29T19:54:17.451Z,28.70
2019-01-29T19:56:47.199Z,75.70
2019-01-29T19:59:17.269Z,52.77
2019-01-29T20:01:46.788Z,74.27
2019-01-29T20:04:16.254Z,132.30
2019-01-29T20:06:47.808Z,56.17
2019-01-29T20:09:17.081Z,45.90
2019-01-29T20:11:46.924Z,26.30
2019-01-29T20:14:16.228Z,41.17
2019-01-29T20:16:45.761Z,41.33
2019-01-29T20:19:15.142Z,40.83
2019-01-29T20:21:44.603Z,30.40
2019-01-29T20:24:13.870Z,26.00
2019-01-29T20:26:43.256Z,33.87
2019-01-29T20:29:12.755Z,38.13
2019-01-29T20:31:43.730Z,100.07
2019-01-29T20:34:13.458Z,76.63
2019-01-29T20:36:42.983Z,46.80
2019-01-29T20:39:13.438Z,33.77
2019-01-29T20:41:42.796Z,28.80
2019-01-29T20:44:12.083Z,65.07
2019-01-29T20:46:41.532Z,32.13
2019-01-29T20:49:10.827Z,29.57
2019-01-29T20:51:40.039Z,33.40
2019-01-29T20:54:09.309Z,125.33
2019-01-29T20:56:38.622Z,100.47
2019-01-29T20:59:08.323Z,107.07
2019-01-29T21:01:37.531Z,164.17
2019-01-29T21:04:06.832Z,87.43
2019-01-29T21:06:36.068Z,64.67
2019-01-29T21:09:08.318Z,125.40
2019-01-29T21:11:37.548Z,159.60
2019-01-29T21:14:06.829Z,190.43
2019-01-29T21:16:36.465Z,182.73
2019-01-29T21:19:05.743Z,152.07
2019-01-29T21:21:36.264Z,138.00
2019-01-29T21:24:05.525Z,68.60
2019-01-29T21:26:34.739Z,83.70
2019-01-29T21:29:05.524Z,68.77
2019-01-29T21:31:35.324Z,92.70
2019-01-29T21:34:04.596Z,91.87
2019-01-29T21:36:35.596Z,72.63
2019-01-29T21:39:08.267Z,59.47
2019-01-29T21:41:37.896Z,103.50
2019-01-29T21:44:07.421Z,40.40
2019-01-29T21:46:36.679Z,35.57
2019-01-29T21:49:06.435Z,45.20
2019-01-29T21:51:35.622Z,60.10
2019-01-29T21:54:04.967Z,58.43
2019-01-29T21:56:34.260Z,58.53
2019-01-29T21:59:12.924Z,63.23
2019-01-29T22:01:34.667Z,53.87
2019-01-29T22:04:03.929Z,88.27
2019-01-29T22:06:33.169Z,91.77
2019-01-29T22:09:03.662Z,146.57
2019-01-29T22:11:33.065Z,48.93
2019-01-29T22:14:02.349Z,25.97
2019-01-29T22:16:31.657Z,54.57
2019-01-29T22:19:00.874Z,33.53
2019-01-29T22:21:30.098Z,31.80
2019-01-29T22:24:00.146Z,29.97
2019-01-29T22:26:29.385Z,27.57
2019-01-29T22:28:59.787Z,44.03
2019-01-29T22:31:29.106Z,40.43
2019-01-29T22:33:58.429Z,64.93
2019-01-29T22:36:27.674Z,27.23
2019-01-29T22:38:57.044Z,32.03
2019-01-29T22:41:27.167Z,42.63
2019-01-29T22:43:56.374Z,68.43
2019-01-29T22:46:25.633Z,35.87
2019-01-29T22:48:54.847Z,30.53
2019-01-29T22:51:24.097Z,32.83
2019-01-29T22:53:53.508Z,38.60
2019-01-29T22:56:23.232Z,45.03
2019-01-29T22:58:52.474Z,80.30
2019-01-29T23:01:42.136Z,29.20
2019-01-29T23:04:23.133Z,29.37
2019-01-29T23:07:15.564Z,25.20
2019-01-29T23:09:44.792Z,24.90
2019-01-29T23:12:14.073Z,30.30
2019-01-29T23:14:43.308Z,19.60
2019-01-29T23:17:12.498Z,18.77
2019-01-29T23:19:41.711Z,23.50
2019-01-29T23:22:10.958Z,40.80
2019-01-29T23:24:40.163Z,24.27
2019-01-29T23:27:09.374Z,18.20
2019-01-29T23:29:43.665Z,28.13
2019-01-29T23:32:09.391Z,46.33
2019-01-29T23:34:38.650Z,34.43
2019-01-29T23:37:07.897Z,19.07
2019-01-29T23:39:37.088Z,19.40
2019-01-29T23:42:06.307Z,38.27
2019-01-29T23:44:36.861Z,37.57
2019-01-29T23:47:06.802Z,52.67
2019-01-29T23:49:36.381Z,31.77
2019-01-29T23:52:05.563Z,35.17
2019-01-29T23:54:34.793Z,44.30
2019-01-29T23:57:04.007Z,30.67
2019-01-29T23:59:33.264Z,41.37
